createdAt,value
2023-05-16T00:02:02.743Z,13.97
2023-05-16T00:04:29.168Z,14.00
2023-05-16T00:06:55.622Z,14.04
2023-05-16T00:09:22.032Z,14.04
2023-05-16T00:11:48.446Z,14.09
2023-05-16T00:14:14.843Z,14.11
2023-05-16T00:16:41.376Z,14.08
2023-05-16T00:19:07.945Z,14.13
2023-05-16T00:21:34.362Z,14.19
2023-05-16T00:24:00.762Z,14.16
2023-05-16T00:26:27.175Z,14.11
2023-05-16T00:28:53.582Z,14.10
2023-05-16T00:31:19.984Z,14.01
2023-05-16T00:33:46.412Z,14.13
2023-05-16T00:36:12.859Z,14.10
2023-05-16T00:38:39.248Z,14.12
2023-05-16T00:41:05.625Z,14.08
2023-05-16T00:43:32.022Z,14.20
2023-05-16T00:45:58.443Z,14.07
2023-05-16T00:48:24.868Z,14.01
2023-05-16T00:50:51.310Z,14.15
2023-05-16T00:53:17.688Z,13.88
2023-05-16T00:55:44.055Z,13.84
2023-05-16T00:58:10.459Z,13.75
2023-05-16T01:00:36.824Z,13.71
2023-05-16T01:03:03.285Z,13.80
2023-05-16T01:05:29.918Z,13.61
2023-05-16T01:07:56.546Z,13.74
2023-05-16T01:10:22.931Z,13.74
2023-05-16T01:12:49.332Z,13.78
2023-05-16T01:15:15.728Z,14.00
2023-05-16T01:17:42.347Z,14.20
2023-05-16T01:20:08.820Z,14.14
2023-05-16T01:22:35.213Z,14.16
2023-05-16T01:25:01.623Z,14.30
2023-05-16T01:27:27.991Z,14.00
2023-05-16T01:29:54.382Z,13.78
2023-05-16T01:32:20.946Z,13.95
2023-05-16T01:34:47.367Z,13.80
2023-05-16T01:37:13.782Z,14.10
2023-05-16T01:39:40.207Z,13.99
2023-05-16T01:42:06.581Z,13.74
2023-05-16T01:44:32.996Z,13.66
2023-05-16T01:46:59.412Z,13.76
2023-05-16T01:49:25.970Z,13.75
2023-05-16T01:51:52.357Z,13.67
2023-05-16T01:54:18.749Z,13.62
2023-05-16T01:56:45.118Z,13.56
2023-05-16T01:59:11.504Z,13.68
2023-05-16T02:01:38.055Z,13.78
2023-05-16T02:04:04.622Z,13.69
2023-05-16T02:06:31.047Z,13.68
2023-05-16T02:08:57.408Z,13.58
2023-05-16T02:11:23.801Z,13.65
2023-05-16T02:13:50.213Z,13.68
2023-05-16T02:16:16.627Z,13.72
2023-05-16T02:18:43.106Z,13.73
2023-05-16T02:21:09.542Z,13.73
2023-05-16T02:23:35.926Z,13.76
2023-05-16T02:26:02.333Z,13.78
2023-05-16T02:28:28.722Z,13.75
2023-05-16T02:30:55.165Z,13.79
2023-05-16T02:33:21.602Z,13.93
2023-05-16T02:35:48.063Z,13.80
2023-05-16T02:38:14.462Z,13.73
2023-05-16T02:40:40.852Z,13.64
2023-05-16T02:43:07.336Z,13.65
2023-05-16T02:45:33.724Z,13.64
2023-05-16T02:48:00.227Z,13.66
2023-05-16T02:50:26.647Z,13.71
2023-05-16T02:52:53.045Z,13.77
2023-05-16T02:55:23.926Z,13.68
2023-05-16T02:57:50.336Z,13.73
2023-05-16T03:00:18.543Z,13.71
2023-05-16T03:02:45.320Z,13.63
2023-05-16T03:05:11.794Z,13.72
2023-05-16T03:07:38.186Z,13.57
2023-05-16T03:10:04.617Z,13.64
2023-05-16T03:12:31.019Z,13.55
2023-05-16T03:14:57.425Z,13.60
2023-05-16T03:17:24.005Z,13.73
2023-05-16T03:19:50.501Z,13.72
2023-05-16T03:22:16.860Z,13.78
2023-05-16T03:24:43.381Z,13.86
2023-05-16T03:27:09.837Z,13.68
2023-05-16T03:29:36.240Z,13.49
2023-05-16T03:32:02.687Z,13.43
2023-05-16T03:34:29.118Z,13.45
2023-05-16T03:36:55.509Z,13.59
2023-05-16T03:39:21.919Z,13.58
2023-05-16T03:41:48.284Z,13.62
2023-05-16T03:44:14.687Z,13.59
2023-05-16T03:46:41.117Z,13.61
2023-05-16T03:49:07.490Z,13.57
2023-05-16T03:51:33.849Z,13.42
2023-05-16T03:54:00.245Z,13.45
2023-05-16T03:56:26.612Z,13.45
2023-05-16T03:58:53.105Z,13.50
2023-05-16T04:01:19.495Z,13.57
2023-05-16T04:03:45.903Z,13.63
2023-05-16T04:06:12.431Z,13.52
2023-05-16T04:08:38.967Z,13.62
2023-05-16T04:11:05.337Z,13.67
2023-05-16T04:13:31.749Z,13.48
2023-05-16T04:15:58.181Z,13.55
2023-05-16T04:18:24.566Z,13.52
2023-05-16T04:20:51.028Z,13.53
2023-05-16T04:23:17.411Z,13.50
2023-05-16T04:25:43.792Z,13.54
2023-05-16T04:28:10.259Z,13.56
2023-05-16T04:30:36.643Z,13.56
2023-05-16T04:33:03.153Z,13.51
2023-05-16T04:35:29.832Z,13.56
2023-05-16T04:37:56.429Z,13.58
2023-05-16T04:40:22.823Z,13.57
2023-05-16T04:42:49.245Z,13.57
2023-05-16T04:45:15.655Z,13.81
2023-05-16T04:47:42.073Z,14.25
2023-05-16T04:50:08.486Z,14.13
2023-05-16T04:52:34.856Z,13.95
2023-05-16T04:55:01.418Z,13.76
2023-05-16T04:57:27.813Z,13.63
2023-05-16T04:59:54.204Z,13.64
2023-05-16T05:02:20.623Z,13.65
2023-05-16T05:04:47.054Z,13.66
2023-05-16T05:07:13.451Z,13.71
2023-05-16T05:09:39.861Z,13.76
2023-05-16T05:12:06.250Z,13.78
2023-05-16T05:14:32.631Z,13.82
2023-05-16T05:16:59.044Z,13.85
2023-05-16T05:19:25.593Z,13.90
2023-05-16T05:21:52.088Z,13.86
2023-05-16T05:24:18.523Z,14.02
2023-05-16T05:26:44.914Z,14.08
2023-05-16T05:29:11.305Z,14.08
2023-05-16T05:31:37.826Z,14.15
2023-05-16T05:34:04.270Z,14.10
2023-05-16T05:36:30.679Z,14.20
2023-05-16T05:38:57.147Z,14.07
2023-05-16T05:41:23.575Z,14.04
2023-05-16T05:43:49.977Z,14.00
2023-05-16T05:46:16.500Z,14.05
2023-05-16T05:48:42.962Z,14.16
2023-05-16T05:51:09.516Z,14.22
2023-05-16T05:53:35.894Z,14.36
2023-05-16T05:56:02.393Z,14.51
2023-05-16T05:58:28.797Z,14.58
2023-05-16T06:00:55.174Z,14.69
2023-05-16T06:03:21.642Z,14.89
2023-05-16T06:05:48.154Z,14.81
2023-05-16T06:08:14.842Z,14.88
2023-05-16T06:10:41.281Z,15.02
2023-05-16T06:13:07.666Z,15.01
2023-05-16T06:15:34.114Z,14.94
2023-05-16T06:18:00.619Z,14.92
2023-05-16T06:20:27.080Z,15.08
2023-05-16T06:22:53.485Z,14.76
2023-05-16T06:25:19.876Z,14.95
2023-05-16T06:27:46.312Z,14.73
2023-05-16T06:30:12.687Z,14.87
2023-05-16T06:32:39.138Z,14.94
2023-05-16T06:35:05.941Z,15.01
2023-05-16T06:37:32.311Z,15.12
2023-05-16T06:39:58.714Z,15.29
2023-05-16T06:42:25.144Z,14.97
2023-05-16T06:44:51.575Z,15.22
2023-05-16T06:47:17.994Z,15.47
2023-05-16T06:49:44.421Z,15.47
2023-05-16T06:52:10.845Z,15.66
2023-05-16T06:54:37.299Z,15.71
2023-05-16T06:57:03.699Z,15.83
2023-05-16T06:59:30.138Z,15.82
2023-05-16T07:01:56.611Z,15.88
2023-05-16T07:04:23.200Z,15.82
2023-05-16T07:06:49.643Z,15.93
2023-05-16T07:09:16.140Z,15.98
2023-05-16T07:11:42.581Z,15.80
2023-05-16T07:14:09.022Z,15.89
2023-05-16T07:16:35.439Z,16.02
2023-05-16T07:19:01.914Z,15.75
2023-05-16T07:21:28.366Z,15.87
2023-05-16T07:23:54.821Z,15.87
2023-05-16T07:26:21.264Z,16.04
2023-05-16T07:28:47.691Z,15.73
2023-05-16T07:31:14.197Z,15.53
2023-05-16T07:33:40.648Z,15.42
2023-05-16T07:36:16.096Z,15.51
2023-05-16T07:38:43.558Z,15.44
2023-05-16T07:41:09.988Z,15.60
2023-05-16T07:43:36.411Z,15.69
2023-05-16T07:46:02.860Z,15.99
2023-05-16T07:48:29.324Z,15.70
2023-05-16T07:50:55.971Z,15.69
2023-05-16T07:53:22.413Z,15.61
2023-05-16T07:55:48.842Z,15.61
2023-05-16T07:58:15.272Z,15.59
2023-05-16T08:00:41.697Z,15.59
2023-05-16T08:03:08.382Z,15.55
2023-05-16T08:05:34.970Z,15.39
2023-05-16T08:08:01.510Z,15.31
2023-05-16T08:10:29.169Z,15.24
2023-05-16T08:12:55.596Z,15.18
2023-05-16T08:15:22.055Z,15.08
2023-05-16T08:17:48.563Z,14.76
2023-05-16T08:20:14.988Z,14.72
2023-05-16T08:22:41.401Z,14.64
2023-05-16T08:25:07.876Z,14.54
2023-05-16T08:27:34.304Z,14.38
2023-05-16T08:30:00.748Z,14.10
2023-05-16T08:32:27.204Z,14.07
2023-05-16T08:34:53.664Z,13.93
2023-05-16T08:37:20.072Z,13.96
2023-05-16T08:39:46.505Z,13.73
2023-05-16T08:42:12.918Z,13.88
2023-05-16T08:44:39.379Z,14.01
2023-05-16T08:47:05.898Z,14.09
2023-05-16T08:49:32.454Z,14.12
2023-05-16T08:51:58.892Z,13.99
2023-05-16T08:54:26.790Z,14.05
2023-05-16T08:56:54.445Z,14.02
2023-05-16T08:59:20.883Z,13.90
2023-05-16T09:01:47.370Z,13.66
2023-05-16T09:04:13.891Z,13.69
2023-05-16T09:06:40.338Z,13.74
2023-05-16T09:09:06.777Z,13.66
2023-05-16T09:11:34.526Z,13.68
2023-05-16T09:14:02.528Z,13.79
2023-05-16T09:16:29.026Z,13.93
2023-05-16T09:18:55.596Z,13.80
2023-05-16T09:21:22.145Z,14.05
2023-05-16T09:23:48.678Z,14.10
2023-05-16T09:26:15.102Z,14.18
2023-05-16T09:28:41.600Z,13.92
2023-05-16T09:31:08.177Z,13.85
2023-05-16T09:33:34.631Z,13.89
2023-05-16T09:36:01.061Z,13.94
2023-05-16T09:38:28.545Z,13.85
2023-05-16T09:40:54.998Z,13.99
2023-05-16T09:43:21.430Z,14.05
2023-05-16T09:45:47.825Z,13.96
2023-05-16T09:48:14.285Z,13.88
2023-05-16T09:50:40.761Z,14.08
2023-05-16T09:53:07.189Z,14.03
2023-05-16T09:55:33.593Z,14.05
2023-05-16T09:58:00.024Z,13.89
2023-05-16T10:00:26.444Z,14.01
2023-05-16T10:02:52.921Z,14.11
2023-05-16T10:05:19.407Z,14.22
2023-05-16T10:07:45.834Z,14.17
2023-05-16T10:10:12.312Z,14.25
2023-05-16T10:12:38.723Z,14.34
2023-05-16T10:15:05.169Z,14.52
2023-05-16T10:17:31.640Z,14.61
2023-05-16T10:19:58.261Z,14.43
2023-05-16T10:22:24.747Z,14.73
2023-05-16T10:24:51.176Z,14.78
2023-05-16T10:27:19.214Z,14.93
2023-05-16T10:29:54.271Z,15.02
2023-05-16T10:32:21.499Z,14.90
2023-05-16T10:34:50.088Z,14.89
2023-05-16T10:37:16.532Z,14.91
2023-05-16T10:39:42.990Z,14.95
2023-05-16T10:42:09.422Z,15.07
2023-05-16T10:44:35.846Z,15.15
2023-05-16T10:47:02.277Z,15.20
2023-05-16T10:49:28.770Z,15.25
2023-05-16T10:51:55.169Z,15.47
2023-05-16T10:54:21.632Z,15.55
2023-05-16T10:56:48.034Z,15.71
2023-05-16T10:59:15.461Z,15.84
2023-05-16T11:01:41.918Z,15.69
2023-05-16T11:04:08.443Z,15.62
2023-05-16T11:06:34.965Z,15.58
2023-05-16T11:09:01.745Z,15.60
2023-05-16T11:11:28.182Z,15.41
2023-05-16T11:13:54.623Z,15.29
2023-05-16T11:16:21.249Z,15.22
2023-05-16T11:18:47.718Z,15.15
2023-05-16T11:21:14.144Z,15.23
2023-05-16T11:23:40.602Z,15.19
2023-05-16T11:26:07.027Z,15.27
2023-05-16T11:28:33.528Z,15.19
2023-05-16T11:31:00.288Z,15.03
2023-05-16T11:33:26.921Z,14.87
2023-05-16T11:35:58.781Z,14.86
2023-05-16T11:38:30.568Z,14.62
2023-05-16T11:40:57.038Z,14.83
2023-05-16T11:43:23.518Z,14.79
2023-05-16T11:45:50.010Z,14.74
2023-05-16T11:48:24.829Z,14.64
2023-05-16T11:50:59.365Z,14.80
2023-05-16T11:53:26.022Z,15.22
2023-05-16T11:55:55.537Z,15.54
2023-05-16T11:58:22.430Z,15.90
2023-05-16T12:00:48.901Z,15.98
2023-05-16T12:03:15.584Z,16.11
2023-05-16T12:05:42.191Z,16.28
2023-05-16T12:08:08.663Z,16.31
2023-05-16T12:10:35.260Z,16.10
2023-05-16T12:13:01.726Z,15.95
2023-05-16T12:15:28.398Z,15.64
2023-05-16T12:17:55.149Z,15.70
2023-05-16T12:20:21.677Z,15.88
2023-05-16T12:22:48.104Z,16.20
2023-05-16T12:25:14.546Z,16.47
2023-05-16T12:27:41.130Z,16.36
2023-05-16T12:30:07.583Z,16.26
2023-05-16T12:32:34.088Z,15.92
2023-05-16T12:35:00.556Z,15.73
2023-05-16T12:37:27.006Z,15.73
2023-05-16T12:39:53.452Z,15.71
2023-05-16T12:42:19.893Z,15.93
2023-05-16T12:44:46.294Z,16.01
2023-05-16T12:47:13.588Z,16.04
2023-05-16T12:49:40.032Z,16.05
2023-05-16T12:52:06.484Z,16.09
2023-05-16T12:54:32.904Z,15.55
2023-05-16T12:56:59.327Z,15.76
2023-05-16T12:59:25.779Z,15.89
2023-05-16T13:01:52.274Z,15.67
2023-05-16T13:04:19.016Z,15.67
2023-05-16T13:06:58.443Z,15.71
2023-05-16T13:09:26.394Z,15.84
2023-05-16T13:11:53.975Z,16.41
2023-05-16T13:14:20.420Z,17.08
2023-05-16T13:16:46.867Z,17.13
2023-05-16T13:19:13.367Z,16.93
2023-05-16T13:21:39.893Z,16.82
2023-05-16T13:24:06.350Z,17.11
2023-05-16T13:26:32.759Z,16.87
2023-05-16T13:28:59.209Z,16.08
2023-05-16T13:31:25.632Z,16.04
2023-05-16T13:33:52.148Z,15.66
2023-05-16T13:36:18.595Z,15.47
2023-05-16T13:38:45.001Z,15.66
2023-05-16T13:41:11.456Z,15.55
2023-05-16T13:43:37.878Z,15.41
2023-05-16T13:46:04.480Z,15.32
2023-05-16T13:48:30.987Z,15.24
2023-05-16T13:50:57.439Z,15.43
2023-05-16T13:53:24.004Z,15.48
2023-05-16T13:55:50.699Z,15.39
2023-05-16T13:58:17.173Z,15.59
2023-05-16T14:00:45.789Z,15.80
2023-05-16T14:03:12.708Z,15.74
2023-05-16T14:05:39.247Z,15.56
2023-05-16T14:08:05.734Z,15.71
2023-05-16T14:10:32.212Z,15.61
2023-05-16T14:12:58.666Z,15.40
2023-05-16T14:15:25.150Z,15.35
2023-05-16T14:17:51.755Z,15.51
2023-05-16T14:20:18.306Z,15.65
2023-05-16T14:22:44.773Z,15.67
2023-05-16T14:25:11.186Z,15.56
2023-05-16T14:27:37.623Z,15.56
2023-05-16T14:30:04.058Z,15.51
2023-05-16T14:32:31.887Z,15.40
2023-05-16T14:34:58.320Z,15.54
2023-05-16T14:37:24.787Z,15.32
2023-05-16T14:39:51.188Z,15.37
2023-05-16T14:42:17.604Z,15.18
2023-05-16T14:44:44.032Z,14.91
2023-05-16T14:47:10.445Z,14.92
2023-05-16T14:49:36.904Z,14.73
2023-05-16T14:52:03.353Z,14.68
2023-05-16T14:54:29.784Z,14.61
2023-05-16T14:56:56.223Z,14.74
2023-05-16T14:59:22.667Z,14.87
2023-05-16T15:01:49.134Z,15.00
2023-05-16T15:04:15.620Z,14.86
2023-05-16T15:06:42.007Z,15.03
2023-05-16T15:09:08.445Z,15.09
2023-05-16T15:11:35.041Z,15.00
2023-05-16T15:14:01.462Z,15.06
2023-05-16T15:16:27.911Z,14.92
2023-05-16T15:18:54.378Z,14.94
2023-05-16T15:21:20.862Z,14.64
2023-05-16T15:23:47.249Z,14.54
2023-05-16T15:26:13.674Z,14.74
2023-05-16T15:28:40.077Z,14.78
2023-05-16T15:31:06.657Z,14.89
2023-05-16T15:33:33.123Z,14.77
2023-05-16T15:35:59.600Z,14.78
2023-05-16T15:38:26.092Z,14.77
2023-05-16T15:41:05.830Z,14.80
2023-05-16T15:43:38.909Z,14.83
2023-05-16T15:46:05.337Z,14.66
2023-05-16T15:48:31.865Z,14.74
2023-05-16T15:50:58.271Z,14.73
2023-05-16T15:53:24.700Z,14.63
2023-05-16T15:55:52.882Z,14.52
2023-05-16T15:58:21.224Z,14.60
2023-05-16T16:00:49.020Z,14.46
2023-05-16T16:03:15.557Z,14.28
2023-05-16T16:05:42.111Z,14.19
2023-05-16T16:08:08.527Z,14.25
2023-05-16T16:10:34.923Z,14.19
2023-05-16T16:13:01.464Z,13.93
2023-05-16T16:15:31.095Z,14.08
2023-05-16T16:17:59.106Z,14.05
2023-05-16T16:20:28.010Z,14.08
2023-05-16T16:22:54.509Z,14.12
2023-05-16T16:25:21.140Z,13.96
2023-05-16T16:27:47.589Z,13.92
2023-05-16T16:30:14.291Z,14.05
2023-05-16T16:32:40.833Z,14.12
2023-05-16T16:35:07.274Z,13.95
2023-05-16T16:37:33.902Z,13.85
2023-05-16T16:40:00.403Z,13.82
2023-05-16T16:42:26.877Z,13.98
2023-05-16T16:44:53.296Z,13.90
2023-05-16T16:47:19.720Z,13.72
2023-05-16T16:49:46.359Z,13.61
2023-05-16T16:52:12.828Z,13.41
2023-05-16T16:54:39.252Z,13.31
2023-05-16T16:57:05.698Z,13.24
2023-05-16T16:59:32.152Z,13.20
2023-05-16T17:01:58.911Z,13.18
2023-05-16T17:04:25.454Z,13.30
2023-05-16T17:06:51.898Z,13.18
2023-05-16T17:09:18.305Z,13.22
2023-05-16T17:11:44.729Z,13.30
2023-05-16T17:14:11.185Z,13.13
2023-05-16T17:16:37.763Z,13.08
2023-05-16T17:19:04.398Z,13.13
2023-05-16T17:21:30.851Z,12.97
2023-05-16T17:23:57.293Z,13.02
2023-05-16T17:26:23.740Z,12.78
2023-05-16T17:28:50.140Z,13.00
2023-05-16T17:31:16.600Z,12.98
2023-05-16T17:33:43.033Z,13.16
2023-05-16T17:36:09.548Z,13.24
2023-05-16T17:38:35.966Z,13.15
2023-05-16T17:41:02.463Z,13.09
2023-05-16T17:43:28.946Z,12.87
2023-05-16T17:45:55.353Z,12.90
2023-05-16T17:48:22.000Z,12.95
2023-05-16T17:50:48.467Z,12.98
2023-05-16T17:53:14.963Z,13.03
2023-05-16T17:55:41.457Z,13.03
2023-05-16T17:58:07.848Z,12.94
2023-05-16T18:00:34.325Z,12.84
2023-05-16T18:03:01.041Z,12.78
2023-05-16T18:05:27.801Z,12.77
2023-05-16T18:07:54.517Z,12.84
2023-05-16T18:10:20.965Z,12.64
2023-05-16T18:12:47.419Z,12.64
2023-05-16T18:15:13.841Z,12.51
2023-05-16T18:17:40.326Z,12.57
2023-05-16T18:20:06.956Z,12.60
2023-05-16T18:22:33.497Z,12.52
2023-05-16T18:24:59.922Z,12.55
2023-05-16T18:27:26.342Z,12.50
2023-05-16T18:29:52.805Z,12.41
2023-05-16T18:32:19.241Z,12.56
2023-05-16T18:34:45.788Z,12.58
2023-05-16T18:37:12.296Z,12.62
2023-05-16T18:39:39.211Z,12.58
2023-05-16T18:42:05.734Z,12.65
2023-05-16T18:44:32.160Z,12.47
2023-05-16T18:46:58.657Z,12.46
2023-05-16T18:49:25.213Z,12.47
2023-05-16T18:51:51.807Z,12.45
2023-05-16T18:54:18.312Z,12.28
2023-05-16T18:56:44.975Z,12.31
2023-05-16T18:59:11.438Z,12.26
2023-05-16T19:01:37.928Z,12.37
2023-05-16T19:04:04.542Z,12.42
2023-05-16T19:06:33.529Z,12.41
2023-05-16T19:09:00.061Z,12.11
2023-05-16T19:11:26.686Z,12.17
2023-05-16T19:13:53.248Z,12.26
2023-05-16T19:16:21.693Z,12.11
2023-05-16T19:18:50.913Z,12.20
2023-05-16T19:21:17.661Z,12.22
2023-05-16T19:23:44.203Z,12.25
2023-05-16T19:26:10.866Z,12.19
2023-05-16T19:28:37.529Z,12.10
2023-05-16T19:31:04.541Z,12.08
2023-05-16T19:33:31.112Z,12.11
2023-05-16T19:35:57.683Z,12.16
2023-05-16T19:38:24.262Z,12.10
2023-05-16T19:40:50.871Z,12.09
2023-05-16T19:43:17.522Z,12.12
2023-05-16T19:45:44.038Z,12.05
2023-05-16T19:48:10.638Z,12.06
2023-05-16T19:50:37.275Z,11.91
2023-05-16T19:53:03.780Z,11.93
2023-05-16T19:55:30.730Z,11.82
2023-05-16T19:57:57.519Z,11.93
2023-05-16T20:00:24.041Z,11.88
2023-05-16T20:02:50.884Z,11.90
2023-05-16T20:05:17.959Z,12.02
2023-05-16T20:07:44.556Z,11.91
2023-05-16T20:10:11.069Z,11.79
2023-05-16T20:12:37.637Z,11.57
2023-05-16T20:15:04.074Z,11.50
2023-05-16T20:17:31.441Z,11.53
2023-05-16T20:19:58.324Z,11.49
2023-05-16T20:22:24.866Z,11.43
2023-05-16T20:24:51.711Z,11.55
2023-05-16T20:27:18.245Z,11.48
2023-05-16T20:29:44.705Z,11.58
2023-05-16T20:32:11.163Z,11.57
2023-05-16T20:34:38.607Z,11.55
2023-05-16T20:37:06.775Z,11.50
2023-05-16T20:39:33.272Z,11.58
2023-05-16T20:41:59.787Z,11.50
2023-05-16T20:44:26.323Z,11.39
2023-05-16T20:46:52.784Z,11.39
2023-05-16T20:49:19.224Z,11.28
2023-05-16T20:51:45.777Z,11.43
2023-05-16T20:54:12.220Z,11.36
2023-05-16T20:56:38.853Z,11.41
2023-05-16T20:59:05.345Z,11.53
2023-05-16T21:01:31.918Z,11.27
2023-05-16T21:03:58.398Z,11.37
2023-05-16T21:06:24.868Z,11.36
2023-05-16T21:08:51.355Z,11.29
2023-05-16T21:11:17.887Z,10.98
2023-05-16T21:13:44.501Z,11.05
2023-05-16T21:16:11.151Z,11.03
2023-05-16T21:18:37.926Z,11.06
2023-05-16T21:21:04.494Z,11.09
2023-05-16T21:23:30.910Z,11.05
2023-05-16T21:25:57.373Z,10.76
2023-05-16T21:28:23.796Z,10.84
2023-05-16T21:30:50.242Z,10.91
2023-05-16T21:33:18.004Z,10.78
2023-05-16T21:35:44.609Z,10.84
2023-05-16T21:38:11.023Z,10.86
2023-05-16T21:40:37.450Z,10.89
2023-05-16T21:43:03.879Z,10.89
2023-05-16T21:45:30.524Z,10.89
2023-05-16T21:47:57.281Z,10.77
2023-05-16T21:50:23.746Z,10.62
2023-05-16T21:52:50.178Z,10.67
2023-05-16T21:55:16.643Z,10.74
2023-05-16T21:57:43.073Z,10.70
2023-05-16T22:00:09.630Z,10.75
2023-05-16T22:02:36.327Z,10.64
2023-05-16T22:05:02.881Z,10.66
2023-05-16T22:07:29.427Z,10.51
2023-05-16T22:09:55.873Z,10.40
2023-05-16T22:12:22.365Z,10.44
2023-05-16T22:14:48.796Z,10.34
2023-05-16T22:17:15.254Z,10.51
2023-05-16T22:19:41.791Z,10.52
2023-05-16T22:22:08.284Z,10.49
2023-05-16T22:24:34.734Z,10.10
2023-05-16T22:27:01.209Z,10.27
2023-05-16T22:29:27.613Z,10.35
2023-05-16T22:31:54.010Z,10.34
2023-05-16T22:34:20.433Z,10.45
2023-05-16T22:36:46.845Z,10.38
2023-05-16T22:39:13.338Z,10.30
2023-05-16T22:41:39.765Z,10.31
2023-05-16T22:44:06.210Z,10.27
2023-05-16T22:46:32.647Z,10.21
2023-05-16T22:48:59.157Z,10.25
2023-05-16T22:51:25.584Z,10.27
2023-05-16T22:53:52.009Z,10.26
2023-05-16T22:56:18.528Z,10.28
2023-05-16T22:58:44.939Z,10.26
2023-05-16T23:01:11.354Z,10.33
2023-05-16T23:03:37.963Z,10.41
2023-05-16T23:06:04.479Z,10.18
2023-05-16T23:08:31.098Z,10.33
2023-05-16T23:10:57.589Z,10.33
2023-05-16T23:13:24.098Z,10.22
2023-05-16T23:15:50.522Z,10.33
2023-05-16T23:18:17.000Z,10.25
2023-05-16T23:20:43.498Z,10.10
2023-05-16T23:23:09.933Z,10.31
2023-05-16T23:25:36.346Z,10.22
2023-05-16T23:28:02.770Z,10.17
2023-05-16T23:30:29.200Z,10.28
2023-05-16T23:32:55.691Z,10.20
2023-05-16T23:35:22.184Z,10.36
2023-05-16T23:37:48.604Z,10.34
2023-05-16T23:40:15.162Z,10.21
2023-05-16T23:42:41.602Z,10.22
2023-05-16T23:45:08.188Z,10.26
2023-05-16T23:47:34.660Z,10.18
2023-05-16T23:50:01.109Z,10.22
2023-05-16T23:52:27.533Z,10.16
2023-05-16T23:54:54.040Z,10.18
2023-05-16T23:57:20.512Z,10.24
2023-05-16T23:59:46.908Z,10.23
